Holly Ridge, NC

12:20 AM EDT on March 28, 2015 (GMT -0400)
RAWS SANDY RUN NC US | | Change Station
CLOSE
Current Station
Personal Weather Station
Location: Sneads Ferry, NC
Elevation: 149 ft
Nearby Weather Stations
Active Advisory: Freeze Watch

Elev 149 ft 34.61 °N, 77.49 °W | Updated 4 days ago

Cloudy
Cloudy
43 °F
Feels Like 38 °F
N
9
Wind Variable Wind from NNW
Gusts 16 mph

Today
High -- | Low -- °F
--% Chance of Precip.
Yesterday
High -- | Low -- °F
Precip. -- in
7:02 AM 7:27 PM
First Quarter, 58% visible
Pressure 29.80 in
Visibility 10.0 miles
Clouds Overcast 4200 ft
Windchill 38 °F
Dew Point 40 °F
Humidity 90%
Rainfall in
Snow Depth Not available.
UV 0 out of 12
Pollen 4.50 out of 12
Air Quality Not available.
Flu Activity Not available.
METAR KNCA 280356Z AUTO 33007KT 10SM OVC042 06/03 A2979 RMK AO2 SLP090 T00610033

More Conditions Fewer Conditions

Pressure 29.80 in
Visibility 10.0 miles
Clouds Overcast 4200 ft
Windchill 38 °F
Dew Point 40 °F
Humidity 90%
Rainfall in
Snow Depth Not available.
UV 0 out of 12
Pollen 4.50 out of 12
Air Quality Not available.
Flu Activity Not available.
METAR KNCA 280356Z AUTO 33007KT 10SM OVC042 06/03 A2979 RMK AO2 SLP090 T00610033

More Conditions Fewer Conditions

10-Day Weather Forecast

Almanac

Astronomy

Mar. 28, 2015 Rise Set
Actual Time
Civil Twilight
Nautical Twilight
Astronomical Twilight
Moon
Length of Visible Light
Length of Day
Tomorrow will be .
, % of the Moon is Illuminated

Today's Extremes

State Highs State Lows

Community

WunderPhotos

Upload Photos

1,808,928 photos uploaded!

WunderBlogs® & News

Nearby

Air Quality

  Air Quality AQ Index Pollutant
Not available.

Snow Depth

Station Depth Elevation

Earthquake Activity

City Distance Mag. Time & Date
Minimum magnitude displayed is 2.5.

Coastal Water Temperatures

Place Temperature

Stations

Nearby Weather Stations

Station Location Temp. Windchill Dew Point Humidity Wind Precip. Elev Updated Type
                   
Freeze Watch
Statement as of 3:15 PM EDT on March 27, 2015

... Freeze watch remains in effect from late Saturday night
through Sunday morning...

* temperatures... in the mid to upper 20s most location and around
freezing close to the coast.

* Timing... Saturday night into early Sunday morning.

* Impacts... cold temperatures will damage or kill sensitive
plants.

Precautionary/preparedness actions...

A freeze watch means sub-freezing temperatures are possible.
These conditions could kill crops and other sensitive vegetation.